sensor_id;sensor_type;location;lat;lon;timestamp;P1;durP1;ratioP1;P2;durP2;ratioP2
13651;SDS011;6899;51.546;6.912;2022-08-03T00:01:00;3.95;;;3.17;;
13651;SDS011;6899;51.546;6.912;2022-08-03T00:03:28;2.90;;;2.63;;
13651;SDS011;6899;51.546;6.912;2022-08-03T00:05:56;3.30;;;2.95;;
13651;SDS011;6899;51.546;6.912;2022-08-03T00:08:23;3.65;;;3.28;;
13651;SDS011;6899;51.546;6.912;2022-08-03T00:10:50;4.53;;;2.80;;
13651;SDS011;6899;51.546;6.912;2022-08-03T00:13:17;3.35;;;3.05;;
13651;SDS011;6899;51.546;6.912;2022-08-03T00:15:44;6.65;;;3.38;;
13651;SDS011;6899;51.546;6.912;2022-08-03T00:18:11;4.60;;;3.40;;
13651;SDS011;6899;51.546;6.912;2022-08-03T00:20:37;3.95;;;3.05;;
13651;SDS011;6899;51.546;6.912;2022-08-03T00:23:06;3.17;;;2.80;;
13651;SDS011;6899;51.546;6.912;2022-08-03T00:25:33;5.13;;;2.97;;
13651;SDS011;6899;51.546;6.912;2022-08-03T00:28:01;4.65;;;2.97;;
13651;SDS011;6899;51.546;6.912;2022-08-03T00:30:28;3.35;;;2.92;;
13651;SDS011;6899;51.546;6.912;2022-08-03T00:32:55;4.90;;;2.90;;
13651;SDS011;6899;51.546;6.912;2022-08-03T00:35:22;3.88;;;3.25;;
13651;SDS011;6899;51.546;6.912;2022-08-03T00:37:51;5.20;;;3.15;;
13651;SDS011;6899;51.546;6.912;2022-08-03T00:40:20;3.53;;;2.90;;
13651;SDS011;6899;51.546;6.912;2022-08-03T00:42:49;4.82;;;3.17;;
13651;SDS011;6899;51.546;6.912;2022-08-03T00:45:18;3.88;;;3.10;;
13651;SDS011;6899;51.546;6.912;2022-08-03T00:47:47;4.10;;;2.88;;
13651;SDS011;6899;51.546;6.912;2022-08-03T00:50:14;4.28;;;3.22;;
13651;SDS011;6899;51.546;6.912;2022-08-03T00:52:42;3.72;;;3.30;;
13651;SDS011;6899;51.546;6.912;2022-08-03T00:55:09;4.07;;;3.60;;
13651;SDS011;6899;51.546;6.912;2022-08-03T00:57:38;3.25;;;2.90;;
13651;SDS011;6899;51.546;6.912;2022-08-03T01:00:06;3.70;;;3.35;;
13651;SDS011;6899;51.546;6.912;2022-08-03T01:02:37;4.28;;;3.30;;
13651;SDS011;6899;51.546;6.912;2022-08-03T01:05:04;3.72;;;3.42;;
13651;SDS011;6899;51.546;6.912;2022-08-03T01:07:36;4.13;;;3.17;;
13651;SDS011;6899;51.546;6.912;2022-08-03T01:10:12;4.25;;;3.38;;
13651;SDS011;6899;51.546;6.912;2022-08-03T01:12:50;3.65;;;3.35;;
13651;SDS011;6899;51.546;6.912;2022-08-03T01:15:24;5.18;;;3.25;;
13651;SDS011;6899;51.546;6.912;2022-08-03T01:17:57;4.20;;;3.40;;
13651;SDS011;6899;51.546;6.912;2022-08-03T01:20:30;3.67;;;3.38;;
13651;SDS011;6899;51.546;6.912;2022-08-03T01:23:05;3.17;;;2.88;;
13651;SDS011;6899;51.546;6.912;2022-08-03T01:25:54;3.88;;;3.33;;
13651;SDS011;6899;51.546;6.912;2022-08-03T01:31:28;3.85;;;3.08;;
13651;SDS011;6899;51.546;6.912;2022-08-03T01:34:02;4.82;;;3.30;;
13651;SDS011;6899;51.546;6.912;2022-08-03T01:36:33;4.95;;;3.90;;
13651;SDS011;6899;51.546;6.912;2022-08-03T01:39:03;7.20;;;3.30;;
13651;SDS011;6899;51.546;6.912;2022-08-03T01:41:34;4.88;;;3.05;;
13651;SDS011;6899;51.546;6.912;2022-08-03T01:44:05;4.95;;;3.67;;
13651;SDS011;6899;51.546;6.912;2022-08-03T01:46:36;5.47;;;3.80;;
13651;SDS011;6899;51.546;6.912;2022-08-03T01:49:06;6.15;;;3.90;;
13651;SDS011;6899;51.546;6.912;2022-08-03T01:51:38;5.43;;;3.70;;
13651;SDS011;6899;51.546;6.912;2022-08-03T01:54:09;4.88;;;3.95;;
13651;SDS011;6899;51.546;6.912;2022-08-03T01:56:38;4.20;;;3.35;;
13651;SDS011;6899;51.546;6.912;2022-08-03T01:59:06;4.38;;;3.83;;
13651;SDS011;6899;51.546;6.912;2022-08-03T02:01:36;4.28;;;3.40;;
13651;SDS011;6899;51.546;6.912;2022-08-03T02:04:04;4.35;;;3.90;;
13651;SDS011;6899;51.546;6.912;2022-08-03T02:06:32;5.80;;;4.00;;
13651;SDS011;6899;51.546;6.912;2022-08-03T02:09:01;7.15;;;3.90;;
13651;SDS011;6899;51.546;6.912;2022-08-03T02:11:29;5.38;;;3.80;;
13651;SDS011;6899;51.546;6.912;2022-08-03T02:13:58;6.03;;;3.50;;
13651;SDS011;6899;51.546;6.912;2022-08-03T02:16:27;7.00;;;3.95;;
13651;SDS011;6899;51.546;6.912;2022-08-03T02:18:57;4.07;;;3.47;;
13651;SDS011;6899;51.546;6.912;2022-08-03T02:21:27;5.70;;;3.47;;
13651;SDS011;6899;51.546;6.912;2022-08-03T02:23:55;4.72;;;3.00;;
13651;SDS011;6899;51.546;6.912;2022-08-03T02:26:22;4.63;;;3.65;;
13651;SDS011;6899;51.546;6.912;2022-08-03T02:28:52;4.70;;;3.60;;
13651;SDS011;6899;51.546;6.912;2022-08-03T02:31:23;4.38;;;3.40;;
13651;SDS011;6899;51.546;6.912;2022-08-03T02:33:55;5.95;;;4.20;;
13651;SDS011;6899;51.546;6.912;2022-08-03T02:36:27;4.93;;;3.75;;
13651;SDS011;6899;51.546;6.912;2022-08-03T02:38:57;5.13;;;4.13;;
13651;SDS011;6899;51.546;6.912;2022-08-03T02:41:27;7.45;;;4.15;;
13651;SDS011;6899;51.546;6.912;2022-08-03T02:43:56;5.05;;;3.60;;
13651;SDS011;6899;51.546;6.912;2022-08-03T02:46:28;5.35;;;3.42;;
13651;SDS011;6899;51.546;6.912;2022-08-03T02:48:59;7.25;;;4.45;;
13651;SDS011;6899;51.546;6.912;2022-08-03T02:51:29;3.75;;;3.28;;
13651;SDS011;6899;51.546;6.912;2022-08-03T02:53:58;6.70;;;3.97;;
13651;SDS011;6899;51.546;6.912;2022-08-03T02:56:28;4.93;;;3.53;;
13651;SDS011;6899;51.546;6.912;2022-08-03T02:58:56;6.18;;;4.30;;
13651;SDS011;6899;51.546;6.912;2022-08-03T03:01:25;5.28;;;3.97;;
13651;SDS011;6899;51.546;6.912;2022-08-03T03:03:54;4.35;;;3.95;;
13651;SDS011;6899;51.546;6.912;2022-08-03T03:06:24;6.75;;;4.20;;
13651;SDS011;6899;51.546;6.912;2022-08-03T03:08:51;6.10;;;4.03;;
13651;SDS011;6899;51.546;6.912;2022-08-03T03:11:21;4.13;;;3.72;;
13651;SDS011;6899;51.546;6.912;2022-08-03T03:13:48;6.10;;;3.53;;
13651;SDS011;6899;51.546;6.912;2022-08-03T03:16:17;5.22;;;3.65;;
13651;SDS011;6899;51.546;6.912;2022-08-03T03:18:45;4.40;;;3.58;;
13651;SDS011;6899;51.546;6.912;2022-08-03T03:21:15;4.95;;;4.25;;
13651;SDS011;6899;51.546;6.912;2022-08-03T03:23:45;6.82;;;4.25;;
13651;SDS011;6899;51.546;6.912;2022-08-03T03:26:13;4.30;;;3.88;;
13651;SDS011;6899;51.546;6.912;2022-08-03T03:28:41;6.93;;;4.35;;
13651;SDS011;6899;51.546;6.912;2022-08-03T03:31:09;4.60;;;3.80;;
13651;SDS011;6899;51.546;6.912;2022-08-03T03:33:37;5.47;;;4.15;;
13651;SDS011;6899;51.546;6.912;2022-08-03T03:36:04;4.97;;;4.47;;
13651;SDS011;6899;51.546;6.912;2022-08-03T03:38:32;9.20;;;4.55;;
13651;SDS011;6899;51.546;6.912;2022-08-03T03:41:00;6.82;;;4.03;;
13651;SDS011;6899;51.546;6.912;2022-08-03T03:43:28;4.60;;;4.00;;
13651;SDS011;6899;51.546;6.912;2022-08-03T03:45:55;5.18;;;4.30;;
13651;SDS011;6899;51.546;6.912;2022-08-03T03:48:23;4.95;;;4.10;;
13651;SDS011;6899;51.546;6.912;2022-08-03T03:50:50;5.03;;;3.72;;
13651;SDS011;6899;51.546;6.912;2022-08-03T03:53:17;4.28;;;3.60;;
13651;SDS011;6899;51.546;6.912;2022-08-03T03:55:44;6.10;;;3.90;;
13651;SDS011;6899;51.546;6.912;2022-08-03T03:58:14;4.65;;;4.25;;
13651;SDS011;6899;51.546;6.912;2022-08-03T04:00:41;4.47;;;3.60;;
13651;SDS011;6899;51.546;6.912;2022-08-03T04:03:09;6.25;;;4.50;;
13651;SDS011;6899;51.546;6.912;2022-08-03T04:05:37;6.80;;;4.40;;
13651;SDS011;6899;51.546;6.912;2022-08-03T04:08:21;4.97;;;3.85;;
13651;SDS011;6899;51.546;6.912;2022-08-03T04:11:10;4.70;;;3.97;;
13651;SDS011;6899;51.546;6.912;2022-08-03T04:13:43;5.15;;;4.03;;
13651;SDS011;6899;51.546;6.912;2022-08-03T04:16:15;5.20;;;4.32;;
13651;SDS011;6899;51.546;6.912;2022-08-03T04:18:50;6.15;;;4.43;;
13651;SDS011;6899;51.546;6.912;2022-08-03T04:21:19;5.28;;;4.00;;
13651;SDS011;6899;51.546;6.912;2022-08-03T04:23:49;6.47;;;4.18;;
13651;SDS011;6899;51.546;6.912;2022-08-03T04:26:19;4.70;;;4.18;;
13651;SDS011;6899;51.546;6.912;2022-08-03T04:28:49;5.28;;;4.35;;
13651;SDS011;6899;51.546;6.912;2022-08-03T04:31:19;5.15;;;3.70;;
13651;SDS011;6899;51.546;6.912;2022-08-03T04:33:48;6.90;;;4.25;;
13651;SDS011;6899;51.546;6.912;2022-08-03T04:36:18;5.28;;;4.07;;
13651;SDS011;6899;51.546;6.912;2022-08-03T04:38:53;5.28;;;4.68;;
13651;SDS011;6899;51.546;6.912;2022-08-03T04:41:26;4.88;;;4.03;;
13651;SDS011;6899;51.546;6.912;2022-08-03T04:43:55;4.93;;;4.43;;
13651;SDS011;6899;51.546;6.912;2022-08-03T04:46:25;4.70;;;3.70;;
13651;SDS011;6899;51.546;6.912;2022-08-03T04:48:54;4.40;;;4.00;;
13651;SDS011;6899;51.546;6.912;2022-08-03T04:51:21;5.75;;;4.03;;
13651;SDS011;6899;51.546;6.912;2022-08-03T04:53:49;6.60;;;4.50;;
13651;SDS011;6899;51.546;6.912;2022-08-03T04:56:16;7.95;;;4.78;;
13651;SDS011;6899;51.546;6.912;2022-08-03T04:58:43;4.40;;;4.00;;
13651;SDS011;6899;51.546;6.912;2022-08-03T05:01:11;5.70;;;4.85;;
13651;SDS011;6899;51.546;6.912;2022-08-03T05:03:38;5.88;;;4.40;;
13651;SDS011;6899;51.546;6.912;2022-08-03T05:06:06;5.00;;;4.53;;
13651;SDS011;6899;51.546;6.912;2022-08-03T05:08:34;4.63;;;4.22;;
13651;SDS011;6899;51.546;6.912;2022-08-03T05:11:01;5.82;;;4.35;;
13651;SDS011;6899;51.546;6.912;2022-08-03T05:13:27;6.85;;;4.28;;
13651;SDS011;6899;51.546;6.912;2022-08-03T05:15:54;6.22;;;4.00;;
13651;SDS011;6899;51.546;6.912;2022-08-03T05:18:23;6.47;;;4.63;;
13651;SDS011;6899;51.546;6.912;2022-08-03T05:20:49;8.98;;;4.60;;
13651;SDS011;6899;51.546;6.912;2022-08-03T05:23:16;8.65;;;4.28;;
13651;SDS011;6899;51.546;6.912;2022-08-03T05:25:44;5.72;;;3.95;;
13651;SDS011;6899;51.546;6.912;2022-08-03T05:28:10;5.63;;;4.30;;
13651;SDS011;6899;51.546;6.912;2022-08-03T05:30:37;5.50;;;4.00;;
13651;SDS011;6899;51.546;6.912;2022-08-03T05:33:04;5.90;;;3.83;;
13651;SDS011;6899;51.546;6.912;2022-08-03T05:35:33;5.13;;;3.85;;
13651;SDS011;6899;51.546;6.912;2022-08-03T05:38:00;7.05;;;4.50;;
13651;SDS011;6899;51.546;6.912;2022-08-03T05:40:27;6.50;;;4.55;;
13651;SDS011;6899;51.546;6.912;2022-08-03T05:42:54;8.60;;;4.35;;
13651;SDS011;6899;51.546;6.912;2022-08-03T05:45:21;6.75;;;4.25;;
13651;SDS011;6899;51.546;6.912;2022-08-03T05:47:49;5.82;;;4.30;;
13651;SDS011;6899;51.546;6.912;2022-08-03T05:50:16;10.10;;;4.40;;
13651;SDS011;6899;51.546;6.912;2022-08-03T05:52:45;5.72;;;3.92;;
13651;SDS011;6899;51.546;6.912;2022-08-03T05:55:12;5.25;;;4.03;;
13651;SDS011;6899;51.546;6.912;2022-08-03T05:57:39;6.70;;;3.53;;
13651;SDS011;6899;51.546;6.912;2022-08-03T06:00:08;6.65;;;3.45;;
13651;SDS011;6899;51.546;6.912;2022-08-03T06:02:36;3.58;;;3.10;;
13651;SDS011;6899;51.546;6.912;2022-08-03T06:05:04;4.80;;;3.28;;
13651;SDS011;6899;51.546;6.912;2022-08-03T06:07:31;10.85;;;4.00;;
13651;SDS011;6899;51.546;6.912;2022-08-03T06:09:59;6.13;;;3.70;;
13651;SDS011;6899;51.546;6.912;2022-08-03T06:12:27;4.53;;;3.10;;
13651;SDS011;6899;51.546;6.912;2022-08-03T06:14:54;7.85;;;3.55;;
13651;SDS011;6899;51.546;6.912;2022-08-03T06:17:21;6.35;;;3.25;;
13651;SDS011;6899;51.546;6.912;2022-08-03T06:19:50;4.22;;;3.00;;
13651;SDS011;6899;51.546;6.912;2022-08-03T06:22:17;6.15;;;2.90;;
13651;SDS011;6899;51.546;6.912;2022-08-03T06:24:44;5.25;;;2.85;;
13651;SDS011;6899;51.546;6.912;2022-08-03T06:27:12;4.35;;;3.13;;
13651;SDS011;6899;51.546;6.912;2022-08-03T06:29:39;5.65;;;3.08;;
13651;SDS011;6899;51.546;6.912;2022-08-03T06:32:06;5.35;;;3.25;;
13651;SDS011;6899;51.546;6.912;2022-08-03T06:34:33;5.97;;;2.95;;
13651;SDS011;6899;51.546;6.912;2022-08-03T06:37:00;4.90;;;3.10;;
13651;SDS011;6899;51.546;6.912;2022-08-03T06:39:27;5.63;;;2.92;;
13651;SDS011;6899;51.546;6.912;2022-08-03T06:41:54;5.85;;;3.35;;
13651;SDS011;6899;51.546;6.912;2022-08-03T06:44:23;6.97;;;3.53;;
13651;SDS011;6899;51.546;6.912;2022-08-03T06:46:51;5.43;;;3.10;;
13651;SDS011;6899;51.546;6.912;2022-08-03T06:49:18;8.40;;;3.03;;
13651;SDS011;6899;51.546;6.912;2022-08-03T06:51:45;6.53;;;3.63;;
13651;SDS011;6899;51.546;6.912;2022-08-03T06:54:12;6.95;;;3.20;;
13651;SDS011;6899;51.546;6.912;2022-08-03T06:56:39;4.07;;;2.60;;
13651;SDS011;6899;51.546;6.912;2022-08-03T06:59:06;7.97;;;3.20;;
13651;SDS011;6899;51.546;6.912;2022-08-03T07:01:34;4.15;;;2.92;;
13651;SDS011;6899;51.546;6.912;2022-08-03T07:04:01;6.63;;;2.75;;
13651;SDS011;6899;51.546;6.912;2022-08-03T07:06:28;6.72;;;3.20;;
13651;SDS011;6899;51.546;6.912;2022-08-03T07:08:55;4.45;;;2.78;;
13651;SDS011;6899;51.546;6.912;2022-08-03T07:11:23;4.82;;;3.17;;
13651;SDS011;6899;51.546;6.912;2022-08-03T07:13:50;5.15;;;3.00;;
13651;SDS011;6899;51.546;6.912;2022-08-03T07:16:17;5.43;;;3.15;;
13651;SDS011;6899;51.546;6.912;2022-08-03T07:18:45;7.80;;;2.90;;
13651;SDS011;6899;51.546;6.912;2022-08-03T07:21:12;9.32;;;3.20;;
13651;SDS011;6899;51.546;6.912;2022-08-03T07:23:41;5.00;;;3.13;;
13651;SDS011;6899;51.546;6.912;2022-08-03T07:26:08;7.43;;;3.13;;
13651;SDS011;6899;51.546;6.912;2022-08-03T07:28:35;5.25;;;2.80;;
13651;SDS011;6899;51.546;6.912;2022-08-03T07:31:02;8.32;;;2.90;;
13651;SDS011;6899;51.546;6.912;2022-08-03T07:33:29;7.93;;;3.17;;
13651;SDS011;6899;51.546;6.912;2022-08-03T07:35:57;5.18;;;3.03;;
13651;SDS011;6899;51.546;6.912;2022-08-03T07:38:24;4.07;;;2.70;;
13651;SDS011;6899;51.546;6.912;2022-08-03T07:40:52;6.78;;;3.38;;
13651;SDS011;6899;51.546;6.912;2022-08-03T07:43:19;4.97;;;2.65;;
13651;SDS011;6899;51.546;6.912;2022-08-03T07:45:46;5.38;;;2.50;;
13651;SDS011;6899;51.546;6.912;2022-08-03T07:48:12;6.55;;;2.83;;
13651;SDS011;6899;51.546;6.912;2022-08-03T07:50:39;5.60;;;2.50;;
13651;SDS011;6899;51.546;6.912;2022-08-03T07:53:08;5.18;;;3.72;;
13651;SDS011;6899;51.546;6.912;2022-08-03T07:55:34;2.63;;;2.22;;
13651;SDS011;6899;51.546;6.912;2022-08-03T07:58:02;3.95;;;2.88;;
13651;SDS011;6899;51.546;6.912;2022-08-03T08:00:30;5.10;;;2.45;;
13651;SDS011;6899;51.546;6.912;2022-08-03T08:02:58;5.07;;;2.40;;
13651;SDS011;6899;51.546;6.912;2022-08-03T08:05:24;5.50;;;2.80;;
13651;SDS011;6899;51.546;6.912;2022-08-03T08:07:52;6.57;;;3.17;;
13651;SDS011;6899;51.546;6.912;2022-08-03T08:10:20;3.45;;;2.70;;
13651;SDS011;6899;51.546;6.912;2022-08-03T08:12:48;5.57;;;3.17;;
13651;SDS011;6899;51.546;6.912;2022-08-03T08:15:14;6.78;;;2.67;;
13651;SDS011;6899;51.546;6.912;2022-08-03T08:17:42;7.13;;;3.50;;
13651;SDS011;6899;51.546;6.912;2022-08-03T08:20:10;6.53;;;3.20;;
13651;SDS011;6899;51.546;6.912;2022-08-03T08:22:40;6.65;;;3.50;;
13651;SDS011;6899;51.546;6.912;2022-08-03T08:25:07;6.22;;;3.20;;
13651;SDS011;6899;51.546;6.912;2022-08-03T08:27:40;6.18;;;3.45;;
13651;SDS011;6899;51.546;6.912;2022-08-03T08:30:08;4.32;;;3.13;;
13651;SDS011;6899;51.546;6.912;2022-08-03T08:32:36;6.95;;;3.28;;
13651;SDS011;6899;51.546;6.912;2022-08-03T08:35:04;7.75;;;3.15;;
13651;SDS011;6899;51.546;6.912;2022-08-03T08:37:31;7.60;;;3.50;;
13651;SDS011;6899;51.546;6.912;2022-08-03T08:39:58;5.85;;;3.45;;
13651;SDS011;6899;51.546;6.912;2022-08-03T08:42:26;7.82;;;3.45;;
13651;SDS011;6899;51.546;6.912;2022-08-03T08:44:54;8.80;;;3.70;;
13651;SDS011;6899;51.546;6.912;2022-08-03T08:47:22;5.13;;;3.08;;
13651;SDS011;6899;51.546;6.912;2022-08-03T08:49:51;6.50;;;3.47;;
13651;SDS011;6899;51.546;6.912;2022-08-03T08:52:19;7.22;;;3.95;;
13651;SDS011;6899;51.546;6.912;2022-08-03T08:54:49;7.65;;;3.25;;
13651;SDS011;6899;51.546;6.912;2022-08-03T08:57:19;9.43;;;3.50;;
13651;SDS011;6899;51.546;6.912;2022-08-03T08:59:47;8.13;;;3.65;;
13651;SDS011;6899;51.546;6.912;2022-08-03T09:02:15;6.53;;;3.20;;
13651;SDS011;6899;51.546;6.912;2022-08-03T09:04:42;5.68;;;3.22;;
13651;SDS011;6899;51.546;6.912;2022-08-03T09:07:12;9.38;;;3.55;;
13651;SDS011;6899;51.546;6.912;2022-08-03T09:09:39;9.38;;;3.45;;
13651;SDS011;6899;51.546;6.912;2022-08-03T09:12:07;6.82;;;3.33;;
13651;SDS011;6899;51.546;6.912;2022-08-03T09:14:34;7.05;;;2.97;;
13651;SDS011;6899;51.546;6.912;2022-08-03T09:17:02;5.72;;;2.63;;
13651;SDS011;6899;51.546;6.912;2022-08-03T09:19:31;6.78;;;3.53;;
13651;SDS011;6899;51.546;6.912;2022-08-03T09:22:06;5.57;;;2.72;;
13651;SDS011;6899;51.546;6.912;2022-08-03T09:24:35;6.70;;;3.00;;
13651;SDS011;6899;51.546;6.912;2022-08-03T09:27:03;5.30;;;2.55;;
13651;SDS011;6899;51.546;6.912;2022-08-03T09:29:33;5.05;;;2.53;;
13651;SDS011;6899;51.546;6.912;2022-08-03T09:32:02;6.00;;;2.78;;
13651;SDS011;6899;51.546;6.912;2022-08-03T09:34:31;4.13;;;2.42;;
13651;SDS011;6899;51.546;6.912;2022-08-03T09:36:58;6.90;;;2.53;;
13651;SDS011;6899;51.546;6.912;2022-08-03T09:39:26;5.63;;;2.50;;
13651;SDS011;6899;51.546;6.912;2022-08-03T09:42:05;4.80;;;2.10;;
13651;SDS011;6899;51.546;6.912;2022-08-03T09:44:34;5.80;;;2.70;;
13651;SDS011;6899;51.546;6.912;2022-08-03T09:47:02;4.97;;;2.50;;
13651;SDS011;6899;51.546;6.912;2022-08-03T09:49:29;4.93;;;2.50;;
13651;SDS011;6899;51.546;6.912;2022-08-03T09:51:59;3.45;;;2.45;;
13651;SDS011;6899;51.546;6.912;2022-08-03T09:54:28;4.45;;;2.30;;
13651;SDS011;6899;51.546;6.912;2022-08-03T09:56:56;6.50;;;2.60;;
13651;SDS011;6899;51.546;6.912;2022-08-03T09:59:24;5.13;;;2.15;;
13651;SDS011;6899;51.546;6.912;2022-08-03T10:01:52;4.57;;;2.33;;
13651;SDS011;6899;51.546;6.912;2022-08-03T10:04:20;5.45;;;2.75;;
13651;SDS011;6899;51.546;6.912;2022-08-03T10:07:02;6.53;;;2.58;;
13651;SDS011;6899;51.546;6.912;2022-08-03T10:09:31;7.70;;;2.45;;
13651;SDS011;6899;51.546;6.912;2022-08-03T10:12:05;5.18;;;2.67;;
13651;SDS011;6899;51.546;6.912;2022-08-03T10:14:34;7.57;;;2.50;;
13651;SDS011;6899;51.546;6.912;2022-08-03T10:17:03;6.10;;;2.63;;
13651;SDS011;6899;51.546;6.912;2022-08-03T10:19:30;4.70;;;2.00;;
13651;SDS011;6899;51.546;6.912;2022-08-03T10:22:00;4.35;;;2.30;;
13651;SDS011;6899;51.546;6.912;2022-08-03T10:24:33;5.22;;;1.80;;
13651;SDS011;6899;51.546;6.912;2022-08-03T10:27:01;3.00;;;2.03;;
13651;SDS011;6899;51.546;6.912;2022-08-03T10:29:32;1.75;;;1.65;;
13651;SDS011;6899;51.546;6.912;2022-08-03T10:32:06;2.72;;;1.83;;
13651;SDS011;6899;51.546;6.912;2022-08-03T10:34:39;5.07;;;2.33;;
13651;SDS011;6899;51.546;6.912;2022-08-03T10:37:10;3.40;;;1.80;;
13651;SDS011;6899;51.546;6.912;2022-08-03T10:39:40;5.03;;;2.00;;
13651;SDS011;6899;51.546;6.912;2022-08-03T10:42:17;2.65;;;1.52;;
13651;SDS011;6899;51.546;6.912;2022-08-03T10:44:51;3.60;;;1.50;;
13651;SDS011;6899;51.546;6.912;2022-08-03T10:47:22;3.40;;;1.77;;
13651;SDS011;6899;51.546;6.912;2022-08-03T10:49:49;4.88;;;1.88;;
13651;SDS011;6899;51.546;6.912;2022-08-03T10:52:18;2.05;;;1.40;;
13651;SDS011;6899;51.546;6.912;2022-08-03T10:54:45;3.60;;;1.60;;
13651;SDS011;6899;51.546;6.912;2022-08-03T10:57:45;3.25;;;1.70;;
13651;SDS011;6899;51.546;6.912;2022-08-03T11:00:18;4.68;;;1.80;;
13651;SDS011;6899;51.546;6.912;2022-08-03T11:03:04;4.80;;;1.92;;
13651;SDS011;6899;51.546;6.912;2022-08-03T11:05:39;4.10;;;1.50;;
13651;SDS011;6899;51.546;6.912;2022-08-03T11:08:24;3.33;;;2.08;;
13651;SDS011;6899;51.546;6.912;2022-08-03T11:10:53;5.05;;;1.90;;
13651;SDS011;6899;51.546;6.912;2022-08-03T11:13:22;3.60;;;1.48;;
13651;SDS011;6899;51.546;6.912;2022-08-03T11:15:51;2.85;;;1.50;;
13651;SDS011;6899;51.546;6.912;2022-08-03T11:18:20;3.88;;;1.88;;
13651;SDS011;6899;51.546;6.912;2022-08-03T11:20:49;3.78;;;1.65;;
13651;SDS011;6899;51.546;6.912;2022-08-03T11:23:18;3.40;;;1.63;;
13651;SDS011;6899;51.546;6.912;2022-08-03T11:26:14;2.83;;;1.40;;
13651;SDS011;6899;51.546;6.912;2022-08-03T11:28:43;5.63;;;1.70;;
13651;SDS011;6899;51.546;6.912;2022-08-03T11:34:12;2.80;;;1.80;;
13651;SDS011;6899;51.546;6.912;2022-08-03T11:39:52;2.47;;;1.48;;
13651;SDS011;6899;51.546;6.912;2022-08-03T11:42:43;3.38;;;1.80;;
13651;SDS011;6899;51.546;6.912;2022-08-03T11:45:12;3.10;;;1.70;;
13651;SDS011;6899;51.546;6.912;2022-08-03T11:47:39;4.60;;;2.33;;
13651;SDS011;6899;51.546;6.912;2022-08-03T11:50:07;3.38;;;1.70;;
13651;SDS011;6899;51.546;6.912;2022-08-03T11:52:43;2.75;;;1.90;;
13651;SDS011;6899;51.546;6.912;2022-08-03T11:55:10;4.93;;;1.80;;
13651;SDS011;6899;51.546;6.912;2022-08-03T11:57:39;7.00;;;2.30;;
13651;SDS011;6899;51.546;6.912;2022-08-03T12:00:24;4.45;;;2.20;;
13651;SDS011;6899;51.546;6.912;2022-08-03T12:02:57;5.97;;;3.58;;
13651;SDS011;6899;51.546;6.912;2022-08-03T12:05:35;3.90;;;1.92;;
13651;SDS011;6899;51.546;6.912;2022-08-03T12:08:11;8.15;;;2.10;;
13651;SDS011;6899;51.546;6.912;2022-08-03T12:10:40;4.65;;;1.88;;
13651;SDS011;6899;51.546;6.912;2022-08-03T12:13:12;2.92;;;1.55;;
13651;SDS011;6899;51.546;6.912;2022-08-03T12:15:41;5.00;;;1.60;;
13651;SDS011;6899;51.546;6.912;2022-08-03T12:18:13;4.85;;;1.60;;
13651;SDS011;6899;51.546;6.912;2022-08-03T12:20:41;4.30;;;1.73;;
13651;SDS011;6899;51.546;6.912;2022-08-03T12:23:08;4.65;;;1.80;;
13651;SDS011;6899;51.546;6.912;2022-08-03T12:25:36;3.35;;;1.60;;
13651;SDS011;6899;51.546;6.912;2022-08-03T12:28:07;2.47;;;1.70;;
13651;SDS011;6899;51.546;6.912;2022-08-03T12:30:42;4.38;;;1.83;;
13651;SDS011;6899;51.546;6.912;2022-08-03T12:33:13;4.95;;;2.10;;
13651;SDS011;6899;51.546;6.912;2022-08-03T12:35:40;3.53;;;1.88;;
13651;SDS011;6899;51.546;6.912;2022-08-03T12:38:08;4.03;;;1.85;;
13651;SDS011;6899;51.546;6.912;2022-08-03T12:40:36;2.65;;;1.67;;
13651;SDS011;6899;51.546;6.912;2022-08-03T12:43:09;3.88;;;1.98;;
13651;SDS011;6899;51.546;6.912;2022-08-03T12:45:37;3.30;;;1.75;;
13651;SDS011;6899;51.546;6.912;2022-08-03T12:48:08;2.95;;;1.85;;
13651;SDS011;6899;51.546;6.912;2022-08-03T12:50:37;5.55;;;1.88;;
13651;SDS011;6899;51.546;6.912;2022-08-03T12:53:07;4.10;;;1.70;;
13651;SDS011;6899;51.546;6.912;2022-08-03T12:55:35;4.05;;;2.10;;
13651;SDS011;6899;51.546;6.912;2022-08-03T12:58:04;3.75;;;1.63;;
13651;SDS011;6899;51.546;6.912;2022-08-03T13:00:34;5.00;;;1.90;;
13651;SDS011;6899;51.546;6.912;2022-08-03T13:03:02;3.70;;;1.65;;
13651;SDS011;6899;51.546;6.912;2022-08-03T13:05:32;5.40;;;2.30;;
13651;SDS011;6899;51.546;6.912;2022-08-03T13:08:16;3.53;;;1.75;;
13651;SDS011;6899;51.546;6.912;2022-08-03T13:10:44;4.88;;;1.80;;
13651;SDS011;6899;51.546;6.912;2022-08-03T13:13:11;5.20;;;2.00;;
13651;SDS011;6899;51.546;6.912;2022-08-03T13:15:38;2.55;;;1.50;;
13651;SDS011;6899;51.546;6.912;2022-08-03T13:18:05;4.20;;;2.08;;
13651;SDS011;6899;51.546;6.912;2022-08-03T13:20:34;3.72;;;1.60;;
13651;SDS011;6899;51.546;6.912;2022-08-03T13:23:01;3.17;;;1.63;;
13651;SDS011;6899;51.546;6.912;2022-08-03T13:25:28;4.18;;;1.50;;
13651;SDS011;6899;51.546;6.912;2022-08-03T13:27:55;4.43;;;1.77;;
13651;SDS011;6899;51.546;6.912;2022-08-03T13:30:22;6.85;;;1.77;;
13651;SDS011;6899;51.546;6.912;2022-08-03T13:32:51;7.25;;;2.40;;
13651;SDS011;6899;51.546;6.912;2022-08-03T13:35:18;7.60;;;2.00;;
13651;SDS011;6899;51.546;6.912;2022-08-03T13:37:46;5.88;;;1.70;;
13651;SDS011;6899;51.546;6.912;2022-08-03T13:40:13;2.75;;;1.60;;
13651;SDS011;6899;51.546;6.912;2022-08-03T13:42:40;4.53;;;1.70;;
13651;SDS011;6899;51.546;6.912;2022-08-03T13:45:07;3.45;;;1.73;;
13651;SDS011;6899;51.546;6.912;2022-08-03T13:47:35;4.70;;;2.00;;
13651;SDS011;6899;51.546;6.912;2022-08-03T13:50:02;3.33;;;1.80;;
13651;SDS011;6899;51.546;6.912;2022-08-03T13:52:30;4.47;;;1.60;;
13651;SDS011;6899;51.546;6.912;2022-08-03T13:54:59;3.53;;;1.50;;
13651;SDS011;6899;51.546;6.912;2022-08-03T13:57:26;3.42;;;2.40;;
13651;SDS011;6899;51.546;6.912;2022-08-03T13:59:53;4.22;;;1.83;;
13651;SDS011;6899;51.546;6.912;2022-08-03T14:02:20;3.88;;;1.88;;
13651;SDS011;6899;51.546;6.912;2022-08-03T14:04:46;3.58;;;1.65;;
13651;SDS011;6899;51.546;6.912;2022-08-03T14:07:13;4.32;;;1.40;;
13651;SDS011;6899;51.546;6.912;2022-08-03T14:09:40;3.50;;;1.92;;
13651;SDS011;6899;51.546;6.912;2022-08-03T14:12:09;3.70;;;1.50;;
13651;SDS011;6899;51.546;6.912;2022-08-03T14:14:35;4.78;;;1.80;;
13651;SDS011;6899;51.546;6.912;2022-08-03T14:17:03;4.47;;;1.73;;
13651;SDS011;6899;51.546;6.912;2022-08-03T14:19:29;3.22;;;1.50;;
13651;SDS011;6899;51.546;6.912;2022-08-03T14:21:56;2.15;;;1.30;;
13651;SDS011;6899;51.546;6.912;2022-08-03T14:24:23;4.03;;;1.60;;
13651;SDS011;6899;51.546;6.912;2022-08-03T14:26:51;2.15;;;1.40;;
13651;SDS011;6899;51.546;6.912;2022-08-03T14:29:19;2.75;;;1.45;;
13651;SDS011;6899;51.546;6.912;2022-08-03T14:31:46;3.33;;;1.50;;
13651;SDS011;6899;51.546;6.912;2022-08-03T14:34:12;2.60;;;1.55;;
13651;SDS011;6899;51.546;6.912;2022-08-03T14:36:39;3.92;;;1.70;;
13651;SDS011;6899;51.546;6.912;2022-08-03T14:39:07;3.80;;;1.67;;
13651;SDS011;6899;51.546;6.912;2022-08-03T14:41:34;6.07;;;2.00;;
13651;SDS011;6899;51.546;6.912;2022-08-03T14:44:01;3.30;;;1.60;;
13651;SDS011;6899;51.546;6.912;2022-08-03T14:46:29;2.85;;;1.60;;
13651;SDS011;6899;51.546;6.912;2022-08-03T14:48:57;5.10;;;1.35;;
13651;SDS011;6899;51.546;6.912;2022-08-03T14:51:23;3.63;;;1.40;;
13651;SDS011;6899;51.546;6.912;2022-08-03T14:53:50;2.67;;;1.48;;
13651;SDS011;6899;51.546;6.912;2022-08-03T14:56:17;5.30;;;1.58;;
13651;SDS011;6899;51.546;6.912;2022-08-03T14:58:44;1.73;;;1.20;;
13651;SDS011;6899;51.546;6.912;2022-08-03T15:01:11;2.10;;;1.17;;
13651;SDS011;6899;51.546;6.912;2022-08-03T15:03:39;3.15;;;1.30;;
13651;SDS011;6899;51.546;6.912;2022-08-03T15:06:06;3.75;;;1.30;;
13651;SDS011;6899;51.546;6.912;2022-08-03T15:08:33;4.25;;;1.58;;
13651;SDS011;6899;51.546;6.912;2022-08-03T15:11:00;2.83;;;1.48;;
13651;SDS011;6899;51.546;6.912;2022-08-03T15:13:26;2.80;;;1.33;;
13651;SDS011;6899;51.546;6.912;2022-08-03T15:15:53;3.38;;;1.20;;
13651;SDS011;6899;51.546;6.912;2022-08-03T15:18:21;2.30;;;1.20;;
13651;SDS011;6899;51.546;6.912;2022-08-03T15:20:49;5.78;;;1.50;;